Time;durP1;ratioP1;P1;durP2;ratioP2;P2;SDS_P1;SDS_P2;PMS_P1;PMS_P2;Temp;Humidity;BMP_temperature;BMP_pressure;BME280_temperature;BME280_humidity;BME280_pressure;Samples;Min_cycle;Max_cycle;Signal;HPM_P1;HPM_P2
2021/10/26 00:02:44;;;;;;;82.20;42.50;;;;;;;4.41;61.44;99673.27;236635;1193;138438;-60
2021/10/26 00:07:47;;;;;;;87.60;44.20;;;;;;;4.35;61.61;99674.86;236684;1193;138287;-63
2021/10/26 00:12:50;;;;;;;85.10;43.60;;;;;;;4.35;61.77;99668.86;236680;1193;139008;-64
2021/10/26 00:17:53;;;;;;;89.20;43.60;;;;;;;4.39;61.80;99670.51;236564;1193;138554;-62
2021/10/26 00:22:57;;;;;;;80.60;42.20;;;;;;;4.42;62.04;99672.19;236544;1193;138681;-61
2021/10/26 00:28:01;;;;;;;83.80;42.30;;;;;;;4.44;62.15;99666.33;235733;1193;138800;-63
2021/10/26 00:33:04;;;;;;;82.10;41.60;;;;;;;4.44;62.05;99667.91;236186;1195;138585;-63
2021/10/26 00:38:08;;;;;;;78.00;40.90;;;;;;;4.44;62.10;99662.30;236493;1193;138821;-62
2021/10/26 00:43:12;;;;;;;78.30;40.40;;;;;;;4.42;62.11;99655.52;236722;1193;138890;-63
2021/10/26 00:48:15;;;;;;;81.20;39.50;;;;;;;4.40;62.27;99646.59;236633;1193;138364;-63
2021/10/26 00:53:20;;;;;;;79.80;41.40;;;;;;;4.38;62.23;99647.20;236590;1193;139131;-61
2021/10/26 00:58:23;;;;;;;78.90;39.40;;;;;;;4.35;62.15;99646.22;236469;1193;138695;-64
2021/10/26 01:03:28;;;;;;;55.70;28.70;;;;;;;4.34;62.18;99645.89;236906;1192;138358;-62
2021/10/26 01:08:34;;;;;;;73.50;40.50;;;;;;;4.29;62.06;99647.94;236918;1192;138224;-62
2021/10/26 01:13:37;;;;;;;78.20;39.60;;;;;;;4.24;62.22;99650.56;236374;1193;139104;-61
2021/10/26 01:18:41;;;;;;;77.60;41.30;;;;;;;4.16;61.87;99643.40;236034;1193;138370;-61
2021/10/26 01:23:44;;;;;;;73.10;38.70;;;;;;;4.07;62.26;99643.98;236272;1195;138740;-60
2021/10/26 01:28:47;;;;;;;80.90;41.30;;;;;;;4.02;62.17;99651.10;235644;1193;138116;-64
2021/10/26 01:33:51;;;;;;;74.10;38.20;;;;;;;4.05;62.61;99646.28;236255;1195;139963;-63
2021/10/26 01:39:05;;;;;;;75.30;38.60;;;;;;;4.09;62.46;99649.19;236455;1193;141642;-63
2021/10/26 01:44:10;;;;;;;74.00;39.10;;;;;;;4.14;62.45;99646.78;236089;1195;138904;-60
2021/10/26 01:49:17;;;;;;;79.40;39.10;;;;;;;4.17;62.50;99646.35;236620;1193;139258;-63
2021/10/26 01:54:21;;;;;;;70.50;38.80;;;;;;;4.19;62.62;99651.38;236795;1193;138921;-61
2021/10/26 01:59:24;;;;;;;77.70;37.70;;;;;;;4.22;62.61;99649.19;236616;1193;138730;-62
2021/10/26 02:04:29;;;;;;;70.20;37.50;;;;;;;4.19;62.48;99654.35;236515;1193;138202;-60
2021/10/26 02:09:33;;;;;;;70.80;38.90;;;;;;;4.14;62.28;99653.45;236620;1193;138531;-61
2021/10/26 02:14:36;;;;;;;76.50;38.40;;;;;;;4.06;62.11;99656.63;236312;1193;138651;-59
2021/10/26 02:19:40;;;;;;;69.10;35.50;;;;;;;4.05;62.61;99651.20;235972;1193;139320;-59
2021/10/26 02:24:43;;;;;;;78.50;38.00;;;;;;;3.97;62.15;99648.24;236603;1193;139791;-64
2021/10/26 02:29:47;;;;;;;67.30;36.40;;;;;;;3.86;62.03;99653.45;236318;1193;138847;-61
2021/10/26 02:34:50;;;;;;;68.10;37.40;;;;;;;3.80;62.31;99657.97;236412;1193;138517;-60
2021/10/26 02:39:53;;;;;;;68.70;36.70;;;;;;;3.74;62.60;99651.64;236581;1193;138811;-62
2021/10/26 02:44:56;;;;;;;66.50;36.00;;;;;;;3.69;62.52;99654.76;236061;1193;138593;-60
2021/10/26 02:49:59;;;;;;;77.00;37.80;;;;;;;3.64;62.62;99654.16;236481;1193;138610;-60
2021/10/26 02:55:05;;;;;;;74.20;37.50;;;;;;;3.62;62.64;99655.27;236010;1193;138557;-62
2021/10/26 03:00:12;;;;;;;73.00;37.10;;;;;;;3.68;62.64;99655.82;236406;1193;139034;-60
2021/10/26 03:05:16;;;;;;;67.60;36.20;;;;;;;3.72;62.73;99654.33;236419;1193;138672;-61
2021/10/26 03:10:19;;;;;;;69.00;37.10;;;;;;;3.70;62.86;99650.69;236375;1193;138635;-61
2021/10/26 03:15:22;;;;;;;66.10;35.70;;;;;;;3.66;62.76;99657.09;236553;1186;139885;-63
2021/10/26 03:20:31;;;;;;;64.60;33.80;;;;;;;3.58;62.55;99665.35;236580;1193;138254;-61
2021/10/26 03:25:34;;;;;;;66.10;32.70;;;;;;;3.51;62.50;99678.68;236438;1193;138396;-61
2021/10/26 03:30:38;;;;;;;63.70;34.60;;;;;;;3.48;62.80;99686.99;236637;1193;138402;-61
2021/10/26 03:36:00;;;;;;;62.80;33.10;;;;;;;3.44;62.83;99678.13;236595;1193;138746;-60
2021/10/26 03:41:03;;;;;;;60.80;33.20;;;;;;;3.41;63.03;99675.07;236582;1193;138899;-61
2021/10/26 03:46:07;;;;;;;72.20;34.30;;;;;;;3.38;63.05;99674.95;236528;1193;139492;-59
2021/10/26 03:51:12;;;;;;;66.30;35.50;;;;;;;3.38;63.21;99672.33;236439;1193;138801;-61
2021/10/26 03:56:15;;;;;;;66.00;35.50;;;;;;;3.42;63.24;99670.45;236363;1193;138629;-62
2021/10/26 04:01:19;;;;;;;65.10;33.10;;;;;;;3.43;63.21;99678.67;236175;1193;139125;-63
2021/10/26 04:06:25;;;;;;;66.70;32.70;;;;;;;3.46;63.43;99679.83;235990;1193;139522;-63
2021/10/26 04:11:38;;;;;;;73.50;32.90;;;;;;;3.48;63.20;99672.77;236708;1193;139076;-61
2021/10/26 04:16:41;;;;;;;66.90;33.20;;;;;;;3.52;63.42;99666.73;236358;1193;139297;-61
2021/10/26 04:21:44;;;;;;;65.70;33.20;;;;;;;3.55;63.46;99661.73;236586;1193;138370;-59
2021/10/26 04:26:48;;;;;;;48.60;23.40;;;;;;;3.59;63.50;99663.42;236144;1193;138926;-63
2021/10/26 04:31:51;;;;;;;56.10;29.10;;;;;;;3.65;63.69;99662.02;236589;1193;139510;-61
2021/10/26 04:36:57;;;;;;;52.30;27.30;;;;;;;3.73;63.53;99668.34;236603;1193;139374;-61
2021/10/26 04:42:02;;;;;;;54.70;27.70;;;;;;;3.72;63.76;99666.58;236653;1193;138407;-61
2021/10/26 04:47:05;;;;;;;50.20;27.20;;;;;;;3.70;63.48;99674.21;236156;1193;139041;-61
2021/10/26 04:52:08;;;;;;;55.50;27.50;;;;;;;3.70;63.61;99679.10;236666;1193;138951;-59
2021/10/26 04:57:12;;;;;;;55.50;29.80;;;;;;;3.70;63.74;99681.75;236668;1195;138937;-61
2021/10/26 05:02:35;;;;;;;56.10;28.90;;;;;;;3.65;63.57;99675.54;236782;1192;138711;-60
2021/10/26 05:07:39;;;;;;;58.70;27.70;;;;;;;3.61;63.48;99669.69;236666;1193;138534;-59
2021/10/26 05:12:43;;;;;;;58.70;28.50;;;;;;;3.56;63.57;99669.61;236591;1193;138609;-60
2021/10/26 05:17:57;;;;;;;55.40;28.00;;;;;;;3.56;63.42;99678.55;236608;1193;138580;-61
2021/10/26 05:23:31;;;;;;;60.60;28.00;;;;;;;3.61;63.64;99677.05;236270;1193;138772;-60
2021/10/26 05:29:01;;;;;;;54.30;26.70;;;;;;;3.60;63.16;99690.76;236560;1193;138972;-65
2021/10/26 05:34:09;;;;;;;54.70;27.50;;;;;;;3.57;63.03;99689.40;236548;1193;138529;-60
2021/10/26 05:39:12;;;;;;;49.90;26.40;;;;;;;3.52;63.24;99694.10;236608;1193;139484;-63
2021/10/26 05:44:15;;;;;;;53.40;25.90;;;;;;;3.48;63.25;99695.58;235587;1193;139003;-61
2021/10/26 05:49:18;;;;;;;54.40;25.90;;;;;;;3.46;63.41;99698.80;236665;1193;139062;-61
2021/10/26 05:54:21;;;;;;;57.90;25.90;;;;;;;3.45;63.45;99706.00;236643;1193;139100;-64
2021/10/26 05:59:24;;;;;;;53.00;25.20;;;;;;;3.47;63.46;99713.84;236495;1194;140010;-63
2021/10/26 06:04:27;;;;;;;55.60;25.90;;;;;;;3.44;63.32;99720.05;236748;1192;138794;-61
2021/10/26 06:09:34;;;;;;;52.00;26.00;;;;;;;3.45;63.67;99712.83;236605;1193;138398;-63
2021/10/26 06:14:38;;;;;;;54.10;25.80;;;;;;;3.48;63.76;99720.14;236298;1193;139570;-62
2021/10/26 06:19:42;;;;;;;59.40;24.70;;;;;;;3.52;63.88;99721.64;236758;1193;138901;-63
2021/10/26 06:24:47;;;;;;;54.80;25.80;;;;;;;3.57;63.95;99725.20;236536;1193;140128;-63
2021/10/26 06:29:50;;;;;;;60.30;27.40;;;;;;;3.67;64.17;99728.32;236518;1193;138364;-62
2021/10/26 06:35:02;;;;;;;71.10;27.20;;;;;;;3.80;64.15;99733.98;236562;1193;139161;-63
2021/10/26 06:40:06;;;;;;;66.10;27.90;;;;;;;3.94;64.43;99738.56;236333;1193;139402;-64
2021/10/26 06:45:11;;;;;;;63.90;26.50;;;;;;;4.06;64.12;99740.91;236569;1193;140278;-62
2021/10/26 06:50:41;;;;;;;57.40;27.60;;;;;;;4.14;64.31;99742.82;236661;1193;138962;-59
2021/10/26 06:56:06;;;;;;;57.90;27.60;;;;;;;4.24;64.28;99754.00;236421;1193;138583;-63
2021/10/26 07:01:41;;;;;;;51.40;26.90;;;;;;;4.34;64.25;99755.15;236495;1193;139736;-63
2021/10/26 07:06:51;;;;;;;65.00;32.10;;;;;;;4.51;64.67;99750.31;235680;1193;233493;-62
2021/10/26 07:12:13;;;;;;;55.30;25.50;;;;;;;4.78;64.68;99743.46;236543;1194;138492;-62
2021/10/26 07:17:16;;;;;;;52.00;27.90;;;;;;;4.86;64.29;99746.23;236593;1193;140287;-63
2021/10/26 07:22:19;;;;;;;42.50;21.80;;;;;;;5.01;64.22;99749.32;236743;1192;138987;-60
2021/10/26 07:27:41;;;;;;;34.60;17.20;;;;;;;5.23;63.98;99743.95;236487;1193;139058;-62
2021/10/26 07:32:44;;;;;;;36.20;16.30;;;;;;;5.41;63.83;99741.66;236617;1193;139091;-63
2021/10/26 07:37:48;;;;;;;38.90;20.10;;;;;;;5.63;63.62;99745.22;236803;1193;139519;-65
2021/10/26 07:42:57;;;;;;;39.50;19.30;;;;;;;5.83;63.37;99739.86;236264;1193;140432;-63
2021/10/26 07:48:20;;;;;;;43.20;19.80;;;;;;;6.01;63.12;99738.98;236546;1194;138654;-62
2021/10/26 07:53:24;;;;;;;43.90;20.10;;;;;;;6.18;62.93;99725.37;236633;1193;140320;-64
2021/10/26 07:58:35;;;;;;;38.50;20.60;;;;;;;6.39;62.85;99728.52;236529;1193;139205;-64
2021/10/26 08:03:40;;;;;;;37.50;19.40;;;;;;;6.58;62.88;99726.33;236831;1193;138272;-63
2021/10/26 08:08:44;;;;;;;46.70;19.70;;;;;;;6.74;62.56;99722.05;236309;1193;138805;-64
2021/10/26 08:13:54;;;;;;;39.40;20.60;;;;;;;6.90;62.26;99721.11;236507;1193;139024;-66
2021/10/26 08:19:05;;;;;;;49.10;20.70;;;;;;;7.08;62.12;99717.45;236637;1193;139135;-64
2021/10/26 08:24:20;;;;;;;36.60;19.00;;;;;;;7.26;61.93;99715.04;236627;1193;139235;-60
2021/10/26 08:35:35;;;;;;;40.70;20.10;;;;;;;7.47;61.25;99716.34;236595;1193;138886;-61
2021/10/26 08:40:14;;;;;;;39.40;19.60;;;;;;;7.65;60.93;99711.24;236352;1193;139955;-58
2021/10/26 08:45:22;;;;;;;40.30;20.70;;;;;;;7.96;62.00;99718.84;236443;1194;139543;-58
2021/10/26 08:50:30;;;;;;;42.30;21.40;;;;;;;8.49;61.30;99714.02;236040;1193;138864;-63
2021/10/26 08:55:37;;;;;;;45.20;21.40;;;;;;;8.63;60.33;99712.73;236425;1193;140977;-58
2021/10/26 09:01:03;;;;;;;47.20;20.90;;;;;;;8.69;60.02;99713.50;236010;1194;138299;-60
2021/10/26 09:06:08;;;;;;;45.30;22.30;;;;;;;8.80;59.77;99708.59;235990;1193;139074;-59
2021/10/26 09:11:21;;;;;;;40.30;20.00;;;;;;;8.94;59.70;99702.70;236790;1192;138661;-63
2021/10/26 09:16:52;;;;;;;41.30;23.80;;;;;;;9.11;59.47;99701.38;236560;1192;138815;-60
2021/10/26 09:22:15;;;;;;;81.60;38.70;;;;;;;9.24;58.90;99704.85;235798;1193;139280;-60
2021/10/26 09:27:20;;;;;;;51.90;23.00;;;;;;;9.42;58.97;99706.15;236530;1193;138433;-62
2021/10/26 09:32:35;;;;;;;39.10;21.20;;;;;;;9.60;58.48;99704.94;236722;1193;139072;-60
2021/10/26 09:37:48;;;;;;;37.30;19.50;;;;;;;9.76;58.37;99697.48;236710;1193;139998;-63
2021/10/26 09:42:53;;;;;;;45.30;20.60;;;;;;;9.90;57.66;99691.65;236775;1193;139559;-63
2021/10/26 09:47:59;;;;;;;43.20;18.80;;;;;;;10.02;57.42;99693.73;236558;1193;139171;-62
2021/10/26 09:53:14;;;;;;;35.60;19.40;;;;;;;10.15;57.13;99693.23;236540;1193;139560;-60
2021/10/26 09:58:21;;;;;;;34.70;17.70;;;;;;;10.30;56.83;99685.97;236590;1193;139965;-59
2021/10/26 10:03:25;;;;;;;34.80;17.70;;;;;;;10.41;56.68;99680.05;236658;1193;138873;-60
2021/10/26 10:08:35;;;;;;;39.30;17.00;;;;;;;10.50;55.87;99674.48;236809;1193;138863;-59
2021/10/26 10:13:56;;;;;;;30.00;15.80;;;;;;;10.62;55.72;99678.14;236658;1193;138529;-59
2021/10/26 10:19:00;;;;;;;322.10;219.00;;;;;;;10.86;56.40;99671.17;236303;1193;139243;-59
2021/10/26 10:24:05;;;;;;;43.60;25.60;;;;;;;11.43;56.53;99659.04;236711;1193;139403;-61
2021/10/26 10:29:09;;;;;;;59.00;28.90;;;;;;;12.10;58.32;99644.36;236606;1193;139178;-61
2021/10/26 10:34:13;;;;;;;29.10;13.50;;;;;;;13.47;57.70;99632.61;236460;1194;139245;-60
2021/10/26 10:39:18;;;;;;;22.60;10.30;;;;;;;13.48;54.21;99628.41;236681;1193;139214;-60
2021/10/26 10:44:21;;;;;;;16.80;8.10;;;;;;;13.26;53.22;99628.61;236797;1193;140376;-60
2021/10/26 10:49:42;;;;;;;18.60;8.60;;;;;;;13.03;52.61;99624.30;236653;1193;138998;-60
2021/10/26 10:54:53;;;;;;;14.00;8.70;;;;;;;12.88;52.39;99614.95;236687;1192;139528;-60
2021/10/26 10:59:59;;;;;;;11.10;6.80;;;;;;;12.80;52.29;99609.54;236578;1193;138929;-60
2021/10/26 11:05:05;;;;;;;11.90;6.90;;;;;;;12.74;51.71;99606.55;236595;1193;138611;-60
2021/10/26 11:10:09;;;;;;;;;;;;;;;12.69;51.51;99603.85;236837;1192;140530;-60
2021/10/26 11:15:16;;;;;;;15.30;5.80;;;;;;;12.67;51.65;99596.31;236702;1193;125239;-59
2021/10/26 11:20:25;;;;;;;11.70;5.90;;;;;;;12.66;51.30;99591.91;236648;1193;139619;-60
2021/10/26 11:25:37;;;;;;;11.50;5.80;;;;;;;12.65;51.13;99585.54;236571;1193;139496;-60
2021/10/26 11:30:42;;;;;;;10.40;4.80;;;;;;;12.68;50.97;99576.85;236450;1193;139508;-60
2021/10/26 11:35:51;;;;;;;10.00;5.20;;;;;;;12.66;50.54;99571.45;236646;1193;139221;-59
2021/10/26 11:41:04;;;;;;;13.80;5.10;;;;;;;12.71;50.37;99573.80;236592;1193;139816;-60
2021/10/26 11:46:29;;;;;;;8.90;4.90;;;;;;;12.80;50.39;99574.15;236829;1193;138842;-60
2021/10/26 11:52:02;;;;;;;11.20;5.30;;;;;;;12.91;50.38;99567.70;236721;1192;138890;-60
2021/10/26 11:57:11;;;;;;;14.50;5.10;;;;;;;12.99;49.68;99559.92;237008;1192;138896;-59
2021/10/26 12:02:20;;;;;;;10.60;5.20;;;;;;;13.10;49.86;99559.91;236679;1193;138521;-60
2021/10/26 12:07:49;;;;;;;18.10;10.10;;;;;;;13.22;50.10;99550.78;236612;1193;139026;-60
2021/10/26 12:12:52;;;;;;;9.50;5.50;;;;;;;13.74;50.75;99545.45;236588;1193;139371;-59
2021/10/26 12:17:55;;;;;;;13.70;6.20;;;;;;;13.84;49.86;99539.75;236483;1193;139896;-60
2021/10/26 12:23:01;;;;;;;12.00;4.90;;;;;;;13.88;49.21;99531.66;236584;1193;138959;-59
2021/10/26 12:28:07;;;;;;;12.00;5.10;;;;;;;13.90;49.34;99522.74;236600;1193;139125;-59
2021/10/26 12:33:29;;;;;;;9.50;5.40;;;;;;;14.10;49.09;99523.34;236579;1193;138786;-60
2021/10/26 12:38:38;;;;;;;10.30;4.70;;;;;;;14.15;48.79;99520.89;236705;1193;138651;-59
2021/10/26 12:43:58;;;;;;;211.50;140.40;;;;;;;14.15;48.60;99523.57;236542;1193;139458;-59
2021/10/26 12:49:19;;;;;;;25.90;13.40;;;;;;;14.16;48.30;99522.73;236982;1193;139897;-60
2021/10/26 12:54:22;;;;;;;10.30;5.60;;;;;;;14.22;48.12;99522.20;236652;1193;138528;-59
2021/10/26 12:59:28;;;;;;;8.00;4.50;;;;;;;14.21;47.70;99520.32;236469;1193;139366;-60
2021/10/26 13:04:34;;;;;;;8.30;4.70;;;;;;;14.14;47.38;99521.10;236568;1193;139473;-60
2021/10/26 13:09:52;;;;;;;7.30;4.30;;;;;;;14.13;47.33;99519.73;236292;1193;138751;-60
2021/10/26 13:15:01;;;;;;;9.10;4.80;;;;;;;14.11;47.35;99514.02;236573;1193;139054;-61
2021/10/26 13:20:20;;;;;;;9.90;4.60;;;;;;;14.11;46.96;99520.79;236493;1193;151764;-60
2021/10/26 13:25:38;;;;;;;10.60;5.10;;;;;;;14.11;46.79;99512.36;236570;1193;138531;-60
2021/10/26 13:30:48;;;;;;;30.70;17.90;;;;;;;14.11;46.84;99506.67;236410;1193;138591;-58
2021/10/26 13:35:51;;;;;;;12.10;5.70;;;;;;;14.16;47.00;99509.73;236510;1193;139411;-59
2021/10/26 13:40:55;;;;;;;15.60;5.40;;;;;;;14.13;46.96;99514.95;235997;1193;139092;-60
2021/10/26 13:46:00;;;;;;;8.80;5.70;;;;;;;14.08;46.80;99516.77;236523;1193;141184;-60
2021/10/26 13:51:06;;;;;;;14.30;6.70;;;;;;;14.02;46.67;99519.64;236474;1193;138797;-57
2021/10/26 13:56:09;;;;;;;14.20;6.10;;;;;;;13.96;46.37;99517.17;236616;1193;138690;-59
2021/10/26 14:01:15;;;;;;;221.20;135.00;;;;;;;13.89;46.28;99519.14;236564;1193;139848;-57
2021/10/26 14:06:23;;;;;;;46.20;23.50;;;;;;;13.87;46.99;99518.87;236649;1193;139387;-61
2021/10/26 14:11:28;;;;;;;22.90;8.60;;;;;;;14.35;48.45;99523.02;236545;1193;139363;-58
2021/10/26 14:16:32;;;;;;;20.00;8.20;;;;;;;14.39;46.89;99525.98;236572;1193;139130;-59
2021/10/26 14:21:35;;;;;;;20.70;8.00;;;;;;;14.27;46.34;99527.40;236360;1193;138805;-58
2021/10/26 14:26:38;;;;;;;22.40;8.60;;;;;;;14.12;46.24;99531.59;236593;1193;138423;-60
2021/10/26 14:31:43;;;;;;;15.20;9.30;;;;;;;14.00;46.16;99537.45;236528;1193;138850;-60
2021/10/26 14:57:57;;;;;;;24.60;10.30;;;;;;;13.51;46.39;99531.23;236785;1193;138851;-59
2021/10/26 15:03:01;;;;;;;30.00;10.20;;;;;;;13.39;46.57;99522.77;236422;1193;139009;-60
2021/10/26 19:33:06;;;;;;;51.70;26.90;;;;;;;10.08;56.18;99707.80;233033;1212;655680;-57
2021/10/26 19:38:10;;;;;;;44.90;24.80;;;;;;;10.02;55.99;99710.36;235403;1200;138861;-59
2021/10/26 19:43:14;;;;;;;44.20;25.00;;;;;;;9.98;56.21;99710.77;235253;1201;138081;-58
2021/10/26 19:48:17;;;;;;;44.10;24.80;;;;;;;9.94;55.92;99718.55;235374;1201;137836;-58
2021/10/26 19:53:24;;;;;;;45.20;25.10;;;;;;;9.90;55.92;99724.25;235302;1200;138589;-57
2021/10/26 19:58:27;;;;;;;46.40;26.60;;;;;;;9.84;56.09;99731.11;235092;1200;138416;-56
2021/10/26 20:03:32;;;;;;;49.40;25.90;;;;;;;9.83;56.20;99740.04;235159;1200;137859;-58
2021/10/26 20:08:35;;;;;;;52.70;27.50;;;;;;;9.83;56.33;99749.39;234936;1201;139290;-57
2021/10/26 20:13:38;;;;;;;46.20;25.10;;;;;;;9.85;56.24;99759.04;234882;1201;138207;-57
2021/10/26 20:18:42;;;;;;;47.70;26.90;;;;;;;9.89;56.63;99776.22;235255;1201;137937;-56
2021/10/26 20:29:15;;;;;;;49.90;27.80;;;;;;;9.99;56.35;99787.66;235108;1201;138188;-57
2021/10/26 20:34:18;;;;;;;50.30;28.90;;;;;;;9.95;56.56;99792.79;235423;1201;139711;-57
2021/10/26 20:39:21;;;;;;;51.20;30.90;;;;;;;9.89;56.48;99797.16;234940;1201;137909;-58
2021/10/26 20:44:25;;;;;;;59.60;31.90;;;;;;;9.84;56.46;99804.65;235066;1201;138541;-59
2021/10/26 20:49:34;;;;;;;50.50;29.20;;;;;;;9.77;56.59;99803.89;234722;1201;138070;-58
2021/10/26 20:54:37;;;;;;;48.50;28.90;;;;;;;9.69;56.61;99800.00;235428;1197;138988;-59
2021/10/26 20:59:40;;;;;;;51.00;28.80;;;;;;;9.63;56.59;99800.29;235636;1197;138536;-58
2021/10/26 21:04:43;;;;;;;51.60;28.70;;;;;;;9.58;56.88;99803.18;235803;1197;138094;-58
2021/10/26 21:09:46;;;;;;;53.50;28.20;;;;;;;9.54;57.03;99811.88;235656;1196;138389;-58
2021/10/26 21:14:49;;;;;;;52.50;28.20;;;;;;;9.51;57.05;99809.52;235111;1196;138788;-56
2021/10/26 21:19:52;;;;;;;53.90;29.20;;;;;;;9.48;57.22;99813.55;235590;1197;137811;-55
2021/10/26 21:24:55;;;;;;;49.80;28.90;;;;;;;9.45;57.06;99812.67;235612;1196;138686;-59
2021/10/26 21:29:59;;;;;;;48.10;28.00;;;;;;;9.44;57.32;99807.70;235140;1196;138328;-58
2021/10/26 21:35:06;;;;;;;46.70;27.20;;;;;;;9.44;57.36;99810.20;235788;1196;138530;-58
2021/10/26 21:40:10;;;;;;;50.70;27.50;;;;;;;9.44;57.33;99829.88;235459;1196;138455;-57
2021/10/26 21:45:13;;;;;;;45.80;26.00;;;;;;;9.40;57.50;99828.42;235675;1196;138165;-57
2021/10/26 21:50:19;;;;;;;51.30;27.30;;;;;;;9.35;57.54;99824.42;235654;1196;139196;-58
2021/10/26 21:55:23;;;;;;;48.10;26.60;;;;;;;9.29;57.41;99818.48;235180;1196;138248;-58
2021/10/26 22:00:27;;;;;;;46.40;27.40;;;;;;;9.24;57.60;99811.97;235578;1196;138617;-59
2021/10/26 22:05:30;;;;;;;52.00;27.60;;;;;;;9.21;57.71;99811.95;234927;1198;138259;-60
2021/10/26 22:10:33;;;;;;;49.20;26.90;;;;;;;9.15;57.75;99813.59;235650;1197;137838;-58
2021/10/26 22:15:38;;;;;;;51.00;27.80;;;;;;;9.05;57.78;99806.98;234997;1198;137961;-57
2021/10/26 22:20:41;;;;;;;55.20;30.90;;;;;;;8.92;58.18;99803.11;235519;1198;139026;-56
2021/10/26 22:25:44;;;;;;;54.10;30.70;;;;;;;8.85;58.26;99800.95;235578;1196;138528;-56
2021/10/26 22:30:47;;;;;;;55.40;31.20;;;;;;;8.79;58.40;99815.15;235494;1196;139640;-56
2021/10/26 22:35:50;;;;;;;53.80;31.30;;;;;;;8.78;58.55;99825.30;235620;1196;138851;-57
2021/10/26 22:40:54;;;;;;;55.90;30.70;;;;;;;8.79;58.68;99826.33;235336;1196;138463;-58
2021/10/26 22:45:57;;;;;;;53.10;30.50;;;;;;;8.80;58.94;99821.69;235753;1196;139709;-57
2021/10/26 22:51:01;;;;;;;57.60;32.70;;;;;;;8.81;59.08;99823.91;235304;1196;139708;-58
2021/10/26 22:56:05;;;;;;;55.50;31.40;;;;;;;8.82;58.95;99817.35;234359;1196;138802;-58
2021/10/26 23:01:08;;;;;;;55.50;30.70;;;;;;;8.80;59.30;99822.37;235724;1196;138730;-58
2021/10/26 23:06:11;;;;;;;51.90;31.10;;;;;;;8.82;59.39;99832.89;235379;1196;138862;-58
2021/10/26 23:11:14;;;;;;;56.10;30.40;;;;;;;8.88;59.41;99827.70;235701;1196;138543;-57
2021/10/26 23:16:17;;;;;;;54.70;31.10;;;;;;;8.93;59.44;99829.59;235354;1190;137990;-57
2021/10/26 23:21:20;;;;;;;52.00;30.50;;;;;;;8.97;59.40;99824.64;235568;1198;139036;-58
2021/10/26 23:26:23;;;;;;;49.90;30.40;;;;;;;8.99;59.40;99829.70;235649;1197;138269;-57
2021/10/26 23:31:26;;;;;;;59.20;30.90;;;;;;;8.99;59.27;99828.27;235563;1196;138960;-58
2021/10/26 23:36:29;;;;;;;56.20;30.30;;;;;;;8.96;59.43;99820.10;235579;1196;138343;-58
2021/10/26 23:41:32;;;;;;;56.10;32.60;;;;;;;8.94;59.35;99822.31;235557;1196;138866;-57
2021/10/26 23:46:35;;;;;;;57.60;32.10;;;;;;;8.97;59.53;99830.52;235691;1198;139083;-55
2021/10/26 23:51:38;;;;;;;61.20;33.10;;;;;;;8.97;59.33;99833.85;235639;1196;139783;-55
2021/10/26 23:56:41;;;;;;;54.50;31.50;;;;;;;9.00;59.41;99839.40;235649;1196;139507;-57
